createdAt,value
2018-07-21T00:02:02.434Z,6.60
2018-07-21T00:06:57.904Z,7.15
2018-07-21T00:09:25.962Z,6.60
2018-07-21T00:11:54.026Z,7.27
2018-07-21T00:14:22.066Z,7.13
2018-07-21T00:16:50.162Z,7.30
2018-07-21T00:19:18.231Z,7.67
2018-07-21T00:21:46.092Z,8.63
2018-07-21T00:24:14.138Z,7.87
2018-07-21T00:26:48.070Z,7.03
2018-07-21T00:29:16.693Z,7.53
2018-07-21T00:31:44.760Z,7.60
2018-07-21T00:34:12.798Z,7.47
2018-07-21T00:36:41.072Z,7.47
2018-07-21T00:39:12.185Z,7.80
2018-07-21T00:41:40.243Z,7.10
2018-07-21T00:44:08.293Z,7.23
2018-07-21T00:46:36.558Z,7.60
2018-07-21T00:49:04.597Z,7.70
2018-07-21T00:51:32.658Z,8.50
2018-07-21T00:54:00.705Z,8.13
2018-07-21T00:56:28.745Z,8.07
2018-07-21T00:58:56.782Z,8.40
2018-07-21T01:01:24.633Z,7.30
2018-07-21T01:03:52.694Z,7.90
2018-07-21T01:06:20.750Z,8.43
2018-07-21T01:08:48.818Z,8.20
2018-07-21T01:11:16.903Z,8.37
2018-07-21T01:13:44.942Z,8.53
2018-07-21T01:16:12.982Z,8.23
2018-07-21T01:18:41.037Z,8.17
2018-07-21T01:21:09.082Z,7.90
2018-07-21T01:23:36.929Z,7.87
2018-07-21T01:26:04.980Z,7.60
2018-07-21T01:28:33.062Z,7.97
2018-07-21T01:31:01.113Z,7.53
2018-07-21T01:33:29.158Z,7.37
2018-07-21T01:35:56.985Z,7.90
2018-07-21T01:38:25.022Z,7.93
2018-07-21T01:40:53.114Z,7.43
2018-07-21T01:43:20.973Z,6.97
2018-07-21T01:45:49.021Z,6.57
2018-07-21T01:55:39.033Z,6.50
2018-07-21T01:58:07.065Z,6.47
2018-07-21T02:00:35.128Z,6.20
2018-07-21T02:03:03.186Z,6.53
2018-07-21T02:05:31.217Z,6.75
2018-07-21T02:07:59.261Z,6.60
2018-07-21T02:12:54.745Z,6.40
2018-07-21T02:15:22.805Z,6.27
2018-07-21T02:17:50.910Z,6.60
2018-07-21T02:20:19.019Z,6.77
2018-07-21T02:27:41.856Z,6.87
2018-07-21T02:30:09.942Z,7.00
2018-07-21T02:32:37.765Z,7.27
2018-07-21T02:35:05.834Z,7.43
2018-07-21T02:37:33.653Z,7.20
2018-07-21T02:40:01.702Z,7.50
2018-07-21T02:42:29.754Z,7.93
2018-07-21T02:44:57.793Z,6.63
2018-07-21T02:47:25.850Z,6.50
2018-07-21T03:39:01.639Z,7.40
2018-07-21T03:41:29.692Z,7.35
2018-07-21T03:43:57.730Z,7.20
2018-07-21T03:46:25.774Z,6.97
2018-07-21T03:48:53.838Z,7.30
2018-07-21T03:51:21.890Z,7.43
2018-07-21T03:53:49.966Z,6.97
2018-07-21T03:56:18.018Z,7.30
2018-07-21T03:58:46.090Z,6.93
2018-07-21T04:01:14.144Z,7.35
2018-07-21T04:03:42.249Z,7.00
2018-07-21T04:06:10.073Z,7.60
2018-07-21T04:08:38.114Z,7.50
2018-07-21T04:11:06.170Z,7.73
2018-07-21T04:13:34.226Z,7.43
2018-07-21T04:16:02.282Z,7.60
2018-07-21T04:25:52.065Z,8.27
2018-07-21T04:28:20.125Z,9.37
2018-07-21T04:30:48.186Z,8.13
2018-07-21T04:33:16.241Z,7.80
2018-07-21T04:35:44.298Z,8.30
2018-07-21T04:38:12.342Z,8.20
2018-07-21T04:40:40.374Z,8.70
2018-07-21T04:43:08.438Z,8.67
2018-07-21T04:45:36.491Z,7.80
2018-07-21T04:48:05.004Z,8.03
2018-07-21T04:50:33.038Z,7.80
2018-07-21T04:53:01.082Z,8.80
2018-07-21T04:55:29.151Z,8.63
2018-07-21T04:57:57.199Z,8.30
2018-07-21T05:00:25.229Z,7.53
2018-07-21T05:02:53.278Z,7.60
2018-07-21T05:05:21.318Z,8.10
2018-07-21T05:07:49.361Z,8.07
2018-07-21T05:10:17.413Z,7.67
2018-07-21T05:12:45.461Z,8.50
2018-07-21T05:15:13.518Z,7.83
2018-07-21T05:20:08.801Z,8.97
2018-07-21T05:22:36.797Z,8.00
2018-07-21T05:25:05.369Z,7.40
2018-07-21T05:27:33.410Z,7.27
2018-07-21T05:30:01.477Z,9.20
2018-07-21T05:32:29.514Z,9.17
2018-07-21T05:34:57.562Z,7.80
2018-07-21T05:39:52.777Z,7.43
2018-07-21T05:42:20.814Z,7.67
2018-07-21T05:47:16.254Z,7.93
2018-07-21T05:49:44.300Z,7.33
2018-07-21T05:52:12.342Z,8.20
2018-07-21T05:54:40.421Z,8.43
2018-07-21T05:57:08.422Z,9.07
2018-07-21T05:59:36.463Z,7.83
2018-07-21T06:02:04.514Z,8.10
2018-07-21T06:04:32.531Z,8.17
2018-07-21T06:07:00.582Z,9.50
2018-07-21T06:09:28.620Z,9.57
2018-07-21T06:11:56.666Z,10.17
2018-07-21T06:16:52.109Z,8.20
2018-07-21T06:19:20.150Z,9.43
2018-07-21T06:21:48.227Z,9.80
2018-07-21T06:24:16.277Z,10.40
2018-07-21T06:43:57.221Z,11.93
2018-07-21T06:46:25.209Z,10.33
2018-07-21T06:48:53.254Z,11.30
2018-07-21T06:51:21.295Z,10.30
2018-07-21T06:53:49.333Z,10.33
2018-07-21T06:56:17.382Z,9.30
2018-07-21T06:58:45.434Z,9.67
2018-07-21T07:01:13.485Z,11.00
2018-07-21T07:03:41.318Z,10.03
2018-07-21T07:06:09.162Z,9.60
2018-07-21T07:08:37.218Z,10.17
2018-07-21T07:11:05.270Z,11.27
2018-07-21T07:13:33.314Z,9.50
2018-07-21T07:16:01.357Z,11.57
2018-07-21T07:18:29.402Z,10.40
2018-07-21T07:20:57.491Z,11.10
2018-07-21T07:30:47.704Z,12.57
2018-07-21T07:35:43.201Z,11.97
2018-07-21T07:38:11.410Z,9.93
2018-07-21T07:40:39.473Z,9.70
2018-07-21T07:45:35.510Z,10.63
2018-07-21T07:50:30.872Z,8.87
2018-07-21T08:02:53.245Z,8.10
2018-07-21T08:12:43.369Z,8.83
2018-07-21T08:15:12.426Z,9.10
2018-07-21T08:17:40.563Z,8.10
2018-07-21T08:20:08.608Z,9.77
2018-07-21T08:22:36.684Z,10.03
2018-07-21T08:25:04.725Z,9.80
2018-07-21T08:27:32.845Z,9.40
2018-07-21T08:30:00.887Z,9.70
2018-07-21T08:32:28.930Z,10.85
2018-07-21T08:34:56.977Z,10.20
2018-07-21T08:37:25.009Z,9.97
2018-07-21T08:39:53.062Z,10.97
2018-07-21T08:42:21.097Z,10.70
2018-07-21T08:44:49.186Z,10.10
2018-07-21T08:47:17.229Z,9.60
2018-07-21T08:49:45.284Z,10.27
2018-07-21T08:52:13.357Z,11.57
2018-07-21T08:57:09.848Z,12.73
2018-07-21T08:59:37.907Z,12.27
2018-07-21T09:02:06.251Z,11.97
2018-07-21T09:04:34.290Z,13.40
2018-07-21T09:07:02.351Z,12.73
2018-07-21T09:09:30.402Z,11.03
2018-07-21T09:11:58.443Z,8.63
2018-07-21T09:14:26.490Z,10.60
2018-07-21T09:16:54.526Z,8.53
2018-07-21T09:19:22.563Z,8.30
2018-07-21T09:46:24.201Z,12.65
2018-07-21T09:48:52.229Z,12.87
2018-07-21T09:51:20.354Z,12.47
2018-07-21T09:53:48.398Z,9.87
2018-07-21T10:08:33.153Z,7.60
2018-07-21T10:11:01.202Z,7.20
2018-07-21T10:15:56.410Z,7.10
2018-07-21T10:18:24.440Z,8.10
2018-07-21T10:25:52.818Z,10.20
2018-07-21T10:28:26.284Z,7.17
2018-07-21T10:30:54.299Z,8.73
2018-07-21T10:38:17.358Z,10.27
2018-07-21T10:40:45.410Z,9.87
2018-07-21T10:43:13.451Z,10.00
2018-07-21T10:45:41.499Z,11.23
2018-07-21T10:50:36.836Z,14.00
2018-07-21T10:55:32.271Z,13.27
2018-07-21T11:00:27.598Z,13.80
2018-07-21T11:02:55.749Z,12.80
2018-07-21T11:05:23.866Z,13.93
2018-07-21T11:15:14.057Z,17.30
2018-07-21T11:17:42.126Z,19.23
2018-07-21T11:22:37.758Z,21.20
2018-07-21T11:27:33.750Z,14.57
2018-07-21T11:30:01.769Z,15.43
2018-07-21T11:32:29.817Z,17.60
2018-07-21T11:34:57.866Z,21.93
2018-07-21T11:37:25.704Z,20.73
2018-07-21T11:39:53.751Z,14.70
2018-07-21T11:42:21.804Z,14.57
2018-07-21T11:44:49.825Z,16.60
2018-07-21T11:47:17.865Z,14.83
2018-07-21T11:49:45.943Z,18.50
2018-07-21T11:52:13.985Z,18.33
2018-07-21T11:57:09.754Z,19.10
2018-07-21T11:59:37.602Z,20.83
2018-07-21T12:02:05.725Z,19.17
2018-07-21T12:04:33.758Z,14.63
2018-07-21T12:07:01.827Z,18.60
2018-07-21T12:09:29.833Z,17.03
2018-07-21T12:11:57.941Z,16.00
2018-07-21T12:14:26.056Z,18.03
2018-07-21T12:16:54.110Z,15.83
2018-07-21T12:19:22.177Z,14.63
2018-07-21T12:21:50.259Z,13.97
2018-07-21T12:24:18.302Z,12.80
2018-07-21T12:26:46.437Z,13.53
2018-07-21T12:29:14.527Z,13.93
2018-07-21T12:31:42.658Z,15.57
2018-07-21T12:34:10.765Z,13.47
2018-07-21T12:36:38.743Z,13.63
2018-07-21T12:39:07.894Z,14.43
2018-07-21T12:41:35.937Z,12.83
2018-07-21T12:44:04.042Z,12.87
2018-07-21T12:46:32.110Z,13.70
2018-07-21T12:48:59.945Z,10.70
2018-07-21T12:51:28.081Z,10.97
2018-07-21T12:53:56.146Z,10.80
2018-07-21T12:56:24.190Z,10.90
2018-07-21T12:58:52.250Z,10.00
2018-07-21T13:01:20.331Z,10.00
2018-07-21T13:03:48.433Z,11.63
2018-07-21T13:06:16.477Z,8.90
2018-07-21T13:08:44.535Z,7.63
2018-07-21T13:11:12.570Z,7.05
2018-07-21T13:13:40.453Z,7.57
2018-07-21T13:16:08.506Z,9.23
2018-07-21T13:18:36.563Z,9.60
2018-07-21T13:21:04.593Z,9.97
2018-07-21T13:26:00.035Z,7.90
2018-07-21T13:28:28.077Z,8.90
2018-07-21T13:30:56.139Z,8.17
2018-07-21T13:33:24.192Z,7.40
2018-07-21T13:35:52.238Z,6.20
2018-07-21T13:38:20.269Z,6.57
2018-07-21T13:40:48.097Z,6.27
2018-07-21T13:43:16.142Z,72.13
2018-07-21T13:45:44.186Z,5.67
2018-07-21T13:48:12.231Z,5.00
2018-07-21T13:50:40.290Z,18.75
2018-07-21T13:53:08.662Z,5.70
2018-07-21T13:55:36.698Z,6.60
2018-07-21T13:58:04.919Z,10.87
2018-07-21T14:00:32.753Z,5.80
2018-07-21T14:03:00.806Z,5.27
2018-07-21T14:05:29.045Z,5.90
2018-07-21T14:07:57.084Z,6.15
2018-07-21T14:10:25.775Z,7.08
2018-07-21T14:12:53.854Z,6.13
2018-07-21T14:15:21.902Z,10.47
2018-07-21T14:17:49.954Z,5.85
2018-07-21T14:20:18.615Z,5.07
2018-07-21T14:22:46.655Z,5.40
2018-07-21T14:25:14.706Z,4.50
2018-07-21T14:27:42.737Z,4.70
2018-07-21T14:30:10.791Z,4.72
2018-07-21T15:09:29.550Z,3.20
2018-07-21T15:14:25.077Z,3.10
2018-07-21T15:19:20.501Z,2.67
2018-07-21T15:21:48.429Z,2.90
2018-07-21T15:24:16.483Z,3.50
2018-07-21T15:29:11.897Z,3.85
2018-07-21T15:31:39.959Z,4.05
2018-07-21T15:34:08.010Z,3.75
2018-07-21T15:36:36.051Z,3.80
2018-07-21T15:39:05.886Z,3.57
2018-07-21T15:41:33.874Z,4.20
2018-07-21T15:44:01.910Z,4.13
2018-07-21T15:46:29.977Z,4.57
2018-07-21T15:48:58.026Z,5.53
2018-07-21T15:51:26.071Z,4.70
2018-07-21T15:53:53.897Z,4.80
2018-07-21T15:56:21.941Z,4.50
2018-07-21T15:58:49.994Z,4.90
2018-07-21T16:01:18.022Z,6.50
2018-07-21T16:03:46.074Z,4.63
2018-07-21T16:06:14.154Z,4.50
2018-07-21T16:08:42.303Z,5.05
2018-07-21T16:11:10.297Z,5.40
2018-07-21T16:13:38.333Z,5.13
2018-07-21T16:16:06.452Z,5.13
2018-07-21T16:18:34.493Z,5.23
2018-07-21T16:21:02.329Z,5.27
2018-07-21T16:23:30.358Z,5.33
2018-07-21T16:25:58.398Z,5.80
2018-07-21T16:28:26.447Z,5.53
2018-07-21T16:30:54.501Z,5.67
2018-07-21T16:33:22.582Z,5.50
2018-07-21T16:35:50.598Z,5.10
2018-07-21T16:38:18.898Z,5.57
2018-07-21T16:40:47.013Z,5.20
2018-07-21T16:43:15.054Z,5.63
2018-07-21T16:45:42.889Z,5.77
2018-07-21T16:48:10.953Z,4.97
2018-07-21T16:50:39.077Z,4.80
2018-07-21T16:53:07.139Z,4.00
2018-07-21T16:55:35.195Z,4.93
2018-07-21T16:58:03.272Z,4.47
2018-07-21T17:00:31.321Z,4.67
2018-07-21T17:02:59.386Z,4.37
2018-07-21T17:05:27.447Z,4.00
2018-07-21T17:07:55.529Z,3.67
2018-07-21T17:10:23.602Z,3.70
2018-07-21T17:12:51.951Z,3.47
2018-07-21T17:15:19.958Z,2.77
2018-07-21T17:17:48.955Z,1.80
2018-07-21T17:20:17.068Z,1.77
2018-07-21T17:22:45.202Z,2.10
2018-07-21T17:35:02.809Z,1.90
2018-07-21T17:37:30.853Z,2.17
2018-07-21T17:39:58.942Z,1.70
2018-07-21T17:42:27.093Z,1.90
2018-07-21T17:49:49.998Z,2.20
2018-07-21T17:57:12.966Z,2.93
2018-07-21T18:02:08.410Z,2.53
2018-07-21T18:04:36.582Z,2.63
2018-07-21T18:07:04.655Z,2.87
2018-07-21T18:09:32.699Z,2.60
2018-07-21T18:12:00.738Z,2.83
2018-07-21T18:14:28.774Z,2.47
2018-07-21T18:16:56.821Z,2.60
2018-07-21T18:19:24.882Z,3.20
2018-07-21T18:21:52.927Z,2.97
2018-07-21T18:24:20.969Z,2.77
2018-07-21T18:26:49.014Z,2.63
2018-07-21T18:31:44.501Z,2.30
2018-07-21T18:44:02.857Z,2.20
2018-07-21T18:48:58.125Z,2.53
2018-07-21T18:58:47.938Z,2.10
2018-07-21T19:01:16.015Z,2.20
2018-07-21T19:03:44.089Z,2.50
2018-07-21T19:28:40.430Z,2.37
2018-07-21T19:31:08.474Z,2.80
2018-07-21T19:33:36.531Z,2.77
2018-07-21T19:36:04.570Z,3.13
2018-07-21T19:38:32.610Z,3.20
2018-07-21T19:42:04.126Z,3.43
2018-07-21T19:44:32.158Z,3.00
2018-07-21T19:47:00.391Z,3.10
2018-07-21T19:49:28.438Z,2.87
2018-07-21T19:51:56.478Z,3.03
2018-07-21T19:54:24.522Z,3.17
2018-07-21T19:56:52.676Z,2.67
2018-07-21T19:59:20.654Z,2.90
2018-07-21T20:01:48.698Z,3.00
2018-07-21T20:04:16.742Z,3.10
2018-07-21T20:06:44.879Z,3.20
2018-07-21T20:09:12.916Z,3.37
2018-07-21T20:11:41.554Z,3.03
2018-07-21T20:14:09.607Z,3.50
2018-07-21T20:16:38.078Z,3.50
2018-07-21T20:19:06.142Z,3.50
2018-07-21T20:21:34.275Z,3.20
2018-07-21T20:24:02.229Z,3.90
2018-07-21T20:26:30.261Z,3.80
2018-07-21T20:28:58.319Z,4.23
2018-07-21T20:31:26.354Z,3.80
2018-07-21T20:33:54.381Z,4.17
2018-07-21T20:36:22.418Z,4.80
2018-07-21T20:38:50.598Z,4.27
2018-07-21T20:41:18.650Z,5.13
2018-07-21T20:43:46.779Z,4.90
2018-07-21T20:46:14.774Z,5.33
2018-07-21T20:48:42.598Z,5.00
2018-07-21T20:51:10.644Z,5.53
2018-07-21T20:53:38.673Z,6.10
2018-07-21T20:56:06.710Z,6.57
2018-07-21T20:58:34.774Z,7.87
2018-07-21T21:01:02.818Z,8.37
2018-07-21T21:03:30.648Z,8.77
2018-07-21T21:05:58.577Z,9.40
2018-07-21T21:08:26.674Z,9.00
2018-07-21T21:10:54.717Z,9.10
2018-07-21T21:13:22.774Z,10.17
2018-07-21T21:15:50.838Z,9.13
2018-07-21T21:18:18.670Z,9.60
2018-07-21T21:20:46.734Z,9.00
2018-07-21T21:23:14.789Z,9.50
2018-07-21T21:25:42.850Z,9.20
2018-07-21T21:28:10.906Z,10.90
2018-07-21T21:30:38.954Z,10.27
2018-07-21T21:33:07.014Z,10.43
2018-07-21T21:35:35.098Z,11.03
2018-07-21T21:38:03.146Z,11.47
2018-07-21T21:40:30.981Z,11.10
2018-07-21T21:42:59.022Z,11.00
2018-07-21T21:45:27.180Z,11.50
2018-07-21T21:47:55.229Z,11.17
2018-07-21T21:50:23.281Z,12.17
2018-07-21T21:52:51.326Z,11.50
2018-07-21T21:55:19.430Z,10.67
2018-07-21T21:57:47.486Z,11.77
2018-07-21T22:00:15.329Z,11.70
2018-07-21T22:02:43.374Z,11.30
2018-07-21T22:05:11.978Z,10.90
2018-07-21T22:07:40.034Z,12.20
2018-07-21T22:10:08.083Z,13.73
2018-07-21T22:12:36.542Z,13.93
2018-07-21T22:15:09.815Z,14.00
2018-07-21T22:17:37.653Z,13.33
2018-07-21T22:20:06.407Z,13.30
2018-07-21T22:22:34.447Z,13.97
2018-07-21T22:25:02.526Z,13.77
2018-07-21T22:27:30.579Z,15.40
2018-07-21T22:29:58.618Z,13.50
2018-07-21T22:32:26.677Z,15.43
2018-07-21T22:34:54.728Z,16.47
2018-07-21T22:37:22.773Z,17.50
2018-07-21T22:39:50.850Z,18.30
2018-07-21T22:42:18.902Z,18.87
2018-07-21T22:44:46.965Z,18.40
2018-07-21T22:47:15.002Z,18.00
2018-07-21T22:49:43.053Z,18.50
2018-07-21T22:52:11.118Z,19.53
2018-07-21T22:54:39.166Z,21.13
2018-07-21T22:57:07.228Z,19.50
2018-07-21T22:59:35.290Z,19.13
2018-07-21T23:02:03.338Z,20.47
2018-07-21T23:04:31.394Z,21.17
2018-07-21T23:06:59.438Z,20.33
2018-07-21T23:09:27.497Z,22.37
2018-07-21T23:11:55.540Z,20.73
2018-07-21T23:14:23.592Z,20.40
2018-07-21T23:16:51.642Z,21.73
2018-07-21T23:19:19.707Z,23.77
2018-07-21T23:21:47.759Z,23.20
2018-07-21T23:24:15.801Z,23.73
2018-07-21T23:26:43.649Z,21.43
2018-07-21T23:29:11.669Z,22.73
2018-07-21T23:31:39.722Z,22.53
2018-07-21T23:34:07.782Z,22.57
2018-07-21T23:36:35.822Z,24.70
2018-07-21T23:39:05.838Z,21.80
2018-07-21T23:41:33.885Z,22.87
2018-07-21T23:44:01.982Z,22.97
2018-07-21T23:46:30.039Z,23.23
2018-07-21T23:48:58.087Z,24.77
2018-07-21T23:51:26.126Z,23.13
2018-07-21T23:53:54.173Z,22.77
2018-07-21T23:56:22.214Z,23.27
2018-07-21T23:58:50.258Z,21.80
